sensor_id;sensor_type;location;lat;lon;timestamp;P1;durP1;ratioP1;P2;durP2;ratioP2
15716;SDS011;7960;50.908;4.204;2023-04-06T00:00:44;22.30;;;13.23;;
15716;SDS011;7960;50.908;4.204;2023-04-06T00:03:11;20.77;;;13.07;;
15716;SDS011;7960;50.908;4.204;2023-04-06T00:05:39;18.33;;;11.67;;
15716;SDS011;7960;50.908;4.204;2023-04-06T00:08:07;23.97;;;12.67;;
15716;SDS011;7960;50.908;4.204;2023-04-06T00:10:33;18.00;;;11.50;;
15716;SDS011;7960;50.908;4.204;2023-04-06T00:13:01;18.87;;;11.80;;
15716;SDS011;7960;50.908;4.204;2023-04-06T00:15:27;18.47;;;12.00;;
15716;SDS011;7960;50.908;4.204;2023-04-06T00:17:55;17.43;;;11.27;;
15716;SDS011;7960;50.908;4.204;2023-04-06T00:20:22;20.63;;;12.40;;
15716;SDS011;7960;50.908;4.204;2023-04-06T00:22:50;23.17;;;12.43;;
15716;SDS011;7960;50.908;4.204;2023-04-06T00:25:17;17.17;;;11.43;;
15716;SDS011;7960;50.908;4.204;2023-04-06T00:27:44;19.33;;;11.93;;
15716;SDS011;7960;50.908;4.204;2023-04-06T00:30:11;18.33;;;12.10;;
15716;SDS011;7960;50.908;4.204;2023-04-06T00:32:38;21.33;;;12.10;;
15716;SDS011;7960;50.908;4.204;2023-04-06T00:35:05;19.83;;;11.00;;
15716;SDS011;7960;50.908;4.204;2023-04-06T00:37:33;17.13;;;10.73;;
15716;SDS011;7960;50.908;4.204;2023-04-06T00:40:01;17.53;;;11.77;;
15716;SDS011;7960;50.908;4.204;2023-04-06T00:42:28;21.77;;;11.63;;
15716;SDS011;7960;50.908;4.204;2023-04-06T00:44:56;17.47;;;11.00;;
15716;SDS011;7960;50.908;4.204;2023-04-06T00:47:25;19.13;;;12.10;;
15716;SDS011;7960;50.908;4.204;2023-04-06T00:49:52;16.80;;;11.67;;
15716;SDS011;7960;50.908;4.204;2023-04-06T00:52:19;16.80;;;10.93;;
15716;SDS011;7960;50.908;4.204;2023-04-06T00:54:47;19.53;;;11.23;;
15716;SDS011;7960;50.908;4.204;2023-04-06T00:57:16;19.33;;;11.73;;
15716;SDS011;7960;50.908;4.204;2023-04-06T00:59:43;17.17;;;11.10;;
15716;SDS011;7960;50.908;4.204;2023-04-06T01:02:11;16.90;;;11.07;;
15716;SDS011;7960;50.908;4.204;2023-04-06T01:04:38;17.57;;;11.40;;
15716;SDS011;7960;50.908;4.204;2023-04-06T01:07:05;17.93;;;11.27;;
15716;SDS011;7960;50.908;4.204;2023-04-06T01:09:32;18.03;;;11.50;;
15716;SDS011;7960;50.908;4.204;2023-04-06T01:11:59;20.70;;;12.33;;
15716;SDS011;7960;50.908;4.204;2023-04-06T01:14:28;20.83;;;12.43;;
15716;SDS011;7960;50.908;4.204;2023-04-06T01:16:57;18.47;;;11.40;;
15716;SDS011;7960;50.908;4.204;2023-04-06T01:19:25;18.87;;;12.00;;
15716;SDS011;7960;50.908;4.204;2023-04-06T01:21:52;16.97;;;11.70;;
15716;SDS011;7960;50.908;4.204;2023-04-06T01:24:20;21.83;;;12.43;;
15716;SDS011;7960;50.908;4.204;2023-04-06T01:26:47;23.00;;;12.07;;
15716;SDS011;7960;50.908;4.204;2023-04-06T01:29:14;19.33;;;11.50;;
15716;SDS011;7960;50.908;4.204;2023-04-06T01:31:41;17.87;;;11.97;;
15716;SDS011;7960;50.908;4.204;2023-04-06T01:34:08;20.97;;;11.93;;
15716;SDS011;7960;50.908;4.204;2023-04-06T01:36:35;22.50;;;11.67;;
15716;SDS011;7960;50.908;4.204;2023-04-06T01:39:02;20.03;;;12.07;;
15716;SDS011;7960;50.908;4.204;2023-04-06T01:41:30;19.77;;;12.07;;
15716;SDS011;7960;50.908;4.204;2023-04-06T01:43:58;20.30;;;12.67;;
15716;SDS011;7960;50.908;4.204;2023-04-06T01:46:25;19.10;;;12.10;;
15716;SDS011;7960;50.908;4.204;2023-04-06T01:48:52;19.10;;;11.57;;
15716;SDS011;7960;50.908;4.204;2023-04-06T01:51:19;17.80;;;12.27;;
15716;SDS011;7960;50.908;4.204;2023-04-06T01:53:46;19.73;;;11.13;;
15716;SDS011;7960;50.908;4.204;2023-04-06T01:56:13;21.10;;;12.23;;
15716;SDS011;7960;50.908;4.204;2023-04-06T01:58:41;17.57;;;12.30;;
15716;SDS011;7960;50.908;4.204;2023-04-06T02:01:08;21.13;;;13.07;;
15716;SDS011;7960;50.908;4.204;2023-04-06T02:03:35;23.77;;;13.20;;
15716;SDS011;7960;50.908;4.204;2023-04-06T02:06:02;19.17;;;12.23;;
15716;SDS011;7960;50.908;4.204;2023-04-06T02:08:30;18.00;;;10.97;;
15716;SDS011;7960;50.908;4.204;2023-04-06T02:10:57;17.83;;;12.13;;
15716;SDS011;7960;50.908;4.204;2023-04-06T02:13:23;18.20;;;12.50;;
15716;SDS011;7960;50.908;4.204;2023-04-06T02:15:52;18.57;;;12.20;;
15716;SDS011;7960;50.908;4.204;2023-04-06T02:18:19;18.33;;;12.07;;
15716;SDS011;7960;50.908;4.204;2023-04-06T02:20:46;20.10;;;12.20;;
15716;SDS011;7960;50.908;4.204;2023-04-06T02:23:13;20.70;;;12.57;;
15716;SDS011;7960;50.908;4.204;2023-04-06T02:25:40;23.30;;;13.00;;
15716;SDS011;7960;50.908;4.204;2023-04-06T02:28:07;17.73;;;11.17;;
15716;SDS011;7960;50.908;4.204;2023-04-06T02:30:34;22.87;;;12.93;;
15716;SDS011;7960;50.908;4.204;2023-04-06T02:33:02;20.93;;;12.63;;
15716;SDS011;7960;50.908;4.204;2023-04-06T02:35:29;22.63;;;13.27;;
15716;SDS011;7960;50.908;4.204;2023-04-06T02:37:57;34.13;;;14.23;;
15716;SDS011;7960;50.908;4.204;2023-04-06T02:40:24;21.43;;;12.80;;
15716;SDS011;7960;50.908;4.204;2023-04-06T02:42:51;22.63;;;12.77;;
15716;SDS011;7960;50.908;4.204;2023-04-06T02:45:18;22.77;;;12.47;;
15716;SDS011;7960;50.908;4.204;2023-04-06T02:47:45;21.47;;;12.73;;
15716;SDS011;7960;50.908;4.204;2023-04-06T02:50:13;20.53;;;12.43;;
15716;SDS011;7960;50.908;4.204;2023-04-06T02:52:41;19.13;;;12.27;;
15716;SDS011;7960;50.908;4.204;2023-04-06T02:55:08;18.87;;;12.40;;
15716;SDS011;7960;50.908;4.204;2023-04-06T02:57:35;19.70;;;12.00;;
15716;SDS011;7960;50.908;4.204;2023-04-06T03:00:02;22.70;;;13.23;;
15716;SDS011;7960;50.908;4.204;2023-04-06T03:02:29;23.50;;;12.97;;
15716;SDS011;7960;50.908;4.204;2023-04-06T03:04:56;21.47;;;12.20;;
15716;SDS011;7960;50.908;4.204;2023-04-06T03:07:25;17.80;;;11.93;;
15716;SDS011;7960;50.908;4.204;2023-04-06T03:09:52;24.07;;;13.23;;
15716;SDS011;7960;50.908;4.204;2023-04-06T03:12:18;20.47;;;12.90;;
15716;SDS011;7960;50.908;4.204;2023-04-06T03:14:45;18.50;;;11.90;;
15716;SDS011;7960;50.908;4.204;2023-04-06T03:17:12;19.67;;;12.80;;
15716;SDS011;7960;50.908;4.204;2023-04-06T03:19:39;20.90;;;12.93;;
15716;SDS011;7960;50.908;4.204;2023-04-06T03:22:06;17.07;;;11.93;;
15716;SDS011;7960;50.908;4.204;2023-04-06T03:24:35;19.57;;;12.33;;
15716;SDS011;7960;50.908;4.204;2023-04-06T03:27:02;19.60;;;12.50;;
15716;SDS011;7960;50.908;4.204;2023-04-06T03:29:29;17.43;;;12.10;;
15716;SDS011;7960;50.908;4.204;2023-04-06T03:31:56;18.63;;;12.50;;
15716;SDS011;7960;50.908;4.204;2023-04-06T03:34:23;17.87;;;12.17;;
15716;SDS011;7960;50.908;4.204;2023-04-06T03:36:50;19.23;;;12.73;;
15716;SDS011;7960;50.908;4.204;2023-04-06T03:39:17;20.10;;;13.20;;
15716;SDS011;7960;50.908;4.204;2023-04-06T03:41:45;22.10;;;12.50;;
15716;SDS011;7960;50.908;4.204;2023-04-06T03:44:12;20.53;;;13.07;;
15716;SDS011;7960;50.908;4.204;2023-04-06T03:46:39;18.77;;;12.60;;
15716;SDS011;7960;50.908;4.204;2023-04-06T03:49:06;20.10;;;12.43;;
15716;SDS011;7960;50.908;4.204;2023-04-06T03:51:33;18.23;;;12.47;;
15716;SDS011;7960;50.908;4.204;2023-04-06T03:54:00;17.40;;;12.27;;
15716;SDS011;7960;50.908;4.204;2023-04-06T03:56:27;21.97;;;12.43;;
15716;SDS011;7960;50.908;4.204;2023-04-06T03:58:55;22.47;;;13.00;;
15716;SDS011;7960;50.908;4.204;2023-04-06T04:01:22;18.57;;;12.57;;
15716;SDS011;7960;50.908;4.204;2023-04-06T04:03:49;20.83;;;12.83;;
15716;SDS011;7960;50.908;4.204;2023-04-06T04:06:17;19.73;;;13.50;;
15716;SDS011;7960;50.908;4.204;2023-04-06T04:08:44;19.37;;;12.57;;
15716;SDS011;7960;50.908;4.204;2023-04-06T04:11:11;20.80;;;12.90;;
15716;SDS011;7960;50.908;4.204;2023-04-06T04:13:38;20.83;;;13.47;;
15716;SDS011;7960;50.908;4.204;2023-04-06T04:16:06;18.93;;;12.80;;
15716;SDS011;7960;50.908;4.204;2023-04-06T04:18:33;23.13;;;13.80;;
15716;SDS011;7960;50.908;4.204;2023-04-06T04:21:01;19.60;;;13.00;;
15716;SDS011;7960;50.908;4.204;2023-04-06T04:23:28;20.90;;;13.57;;
15716;SDS011;7960;50.908;4.204;2023-04-06T04:25:55;20.17;;;14.03;;
15716;SDS011;7960;50.908;4.204;2023-04-06T04:28:22;22.43;;;13.77;;
15716;SDS011;7960;50.908;4.204;2023-04-06T04:30:49;22.00;;;13.47;;
15716;SDS011;7960;50.908;4.204;2023-04-06T04:33:17;24.93;;;15.07;;
15716;SDS011;7960;50.908;4.204;2023-04-06T04:35:44;25.40;;;14.03;;
15716;SDS011;7960;50.908;4.204;2023-04-06T04:38:11;24.27;;;14.70;;
15716;SDS011;7960;50.908;4.204;2023-04-06T04:40:38;22.40;;;13.93;;
15716;SDS011;7960;50.908;4.204;2023-04-06T04:43:05;21.30;;;14.77;;
15716;SDS011;7960;50.908;4.204;2023-04-06T04:45:32;23.63;;;14.50;;
15716;SDS011;7960;50.908;4.204;2023-04-06T04:47:59;23.30;;;14.37;;
15716;SDS011;7960;50.908;4.204;2023-04-06T04:50:27;20.43;;;14.37;;
15716;SDS011;7960;50.908;4.204;2023-04-06T04:52:54;23.10;;;14.57;;
15716;SDS011;7960;50.908;4.204;2023-04-06T04:55:21;24.00;;;15.23;;
15716;SDS011;7960;50.908;4.204;2023-04-06T04:57:48;21.23;;;14.40;;
15716;SDS011;7960;50.908;4.204;2023-04-06T05:00:15;24.00;;;15.20;;
15716;SDS011;7960;50.908;4.204;2023-04-06T05:02:42;22.60;;;14.57;;
15716;SDS011;7960;50.908;4.204;2023-04-06T05:05:09;23.30;;;15.73;;
15716;SDS011;7960;50.908;4.204;2023-04-06T05:07:37;22.50;;;15.23;;
15716;SDS011;7960;50.908;4.204;2023-04-06T05:10:05;26.97;;;15.77;;
15716;SDS011;7960;50.908;4.204;2023-04-06T05:12:32;22.53;;;15.03;;
15716;SDS011;7960;50.908;4.204;2023-04-06T05:14:59;23.00;;;15.23;;
15716;SDS011;7960;50.908;4.204;2023-04-06T05:17:26;23.47;;;16.30;;
15716;SDS011;7960;50.908;4.204;2023-04-06T05:19:54;22.80;;;15.67;;
15716;SDS011;7960;50.908;4.204;2023-04-06T05:22:21;22.33;;;16.10;;
15716;SDS011;7960;50.908;4.204;2023-04-06T05:24:49;27.83;;;16.03;;
15716;SDS011;7960;50.908;4.204;2023-04-06T05:27:16;22.63;;;16.77;;
15716;SDS011;7960;50.908;4.204;2023-04-06T05:29:43;25.37;;;16.30;;
15716;SDS011;7960;50.908;4.204;2023-04-06T05:32:10;25.43;;;16.80;;
15716;SDS011;7960;50.908;4.204;2023-04-06T05:34:38;24.80;;;16.07;;
15716;SDS011;7960;50.908;4.204;2023-04-06T05:37:05;28.67;;;16.17;;
15716;SDS011;7960;50.908;4.204;2023-04-06T05:39:32;26.07;;;16.13;;
15716;SDS011;7960;50.908;4.204;2023-04-06T05:42:03;24.67;;;16.47;;
15716;SDS011;7960;50.908;4.204;2023-04-06T05:44:31;26.27;;;16.80;;
15716;SDS011;7960;50.908;4.204;2023-04-06T05:46:58;27.57;;;16.47;;
15716;SDS011;7960;50.908;4.204;2023-04-06T05:49:25;26.00;;;16.37;;
15716;SDS011;7960;50.908;4.204;2023-04-06T05:51:52;24.77;;;17.07;;
15716;SDS011;7960;50.908;4.204;2023-04-06T05:54:19;27.70;;;17.13;;
15716;SDS011;7960;50.908;4.204;2023-04-06T05:56:47;26.83;;;17.37;;
15716;SDS011;7960;50.908;4.204;2023-04-06T05:59:16;23.93;;;16.60;;
15716;SDS011;7960;50.908;4.204;2023-04-06T06:01:43;24.73;;;17.53;;
15716;SDS011;7960;50.908;4.204;2023-04-06T06:04:10;25.40;;;16.57;;
15716;SDS011;7960;50.908;4.204;2023-04-06T06:06:36;22.70;;;16.13;;
15716;SDS011;7960;50.908;4.204;2023-04-06T06:09:03;26.07;;;17.00;;
15716;SDS011;7960;50.908;4.204;2023-04-06T06:11:30;26.40;;;17.43;;
15716;SDS011;7960;50.908;4.204;2023-04-06T06:13:58;28.30;;;17.63;;
15716;SDS011;7960;50.908;4.204;2023-04-06T06:16:26;51.30;;;22.60;;
15716;SDS011;7960;50.908;4.204;2023-04-06T06:18:53;23.97;;;17.17;;
15716;SDS011;7960;50.908;4.204;2023-04-06T06:21:20;33.63;;;17.63;;
15716;SDS011;7960;50.908;4.204;2023-04-06T06:23:47;24.60;;;17.37;;
15716;SDS011;7960;50.908;4.204;2023-04-06T06:26:15;30.47;;;17.53;;
15716;SDS011;7960;50.908;4.204;2023-04-06T06:28:42;30.47;;;17.70;;
15716;SDS011;7960;50.908;4.204;2023-04-06T06:31:09;26.17;;;17.13;;
15716;SDS011;7960;50.908;4.204;2023-04-06T06:33:37;27.57;;;17.93;;
15716;SDS011;7960;50.908;4.204;2023-04-06T06:36:04;26.93;;;16.90;;
15716;SDS011;7960;50.908;4.204;2023-04-06T06:38:31;27.57;;;18.20;;
15716;SDS011;7960;50.908;4.204;2023-04-06T06:40:58;26.83;;;17.50;;
15716;SDS011;7960;50.908;4.204;2023-04-06T06:43:25;29.87;;;17.80;;
15716;SDS011;7960;50.908;4.204;2023-04-06T06:45:52;28.27;;;18.47;;
15716;SDS011;7960;50.908;4.204;2023-04-06T06:48:19;28.77;;;17.90;;
15716;SDS011;7960;50.908;4.204;2023-04-06T06:50:48;25.30;;;16.97;;
15716;SDS011;7960;50.908;4.204;2023-04-06T06:53:15;27.30;;;16.93;;
15716;SDS011;7960;50.908;4.204;2023-04-06T06:55:42;28.43;;;17.40;;
15716;SDS011;7960;50.908;4.204;2023-04-06T06:58:09;29.13;;;17.57;;
15716;SDS011;7960;50.908;4.204;2023-04-06T07:00:36;26.13;;;17.37;;
15716;SDS011;7960;50.908;4.204;2023-04-06T07:03:03;28.40;;;18.37;;
15716;SDS011;7960;50.908;4.204;2023-04-06T07:05:30;27.60;;;17.70;;
15716;SDS011;7960;50.908;4.204;2023-04-06T07:07:58;27.37;;;17.60;;
15716;SDS011;7960;50.908;4.204;2023-04-06T07:10:25;24.53;;;16.93;;
15716;SDS011;7960;50.908;4.204;2023-04-06T07:12:52;28.93;;;18.80;;
15716;SDS011;7960;50.908;4.204;2023-04-06T07:15:19;28.13;;;18.63;;
15716;SDS011;7960;50.908;4.204;2023-04-06T07:17:46;24.93;;;17.43;;
15716;SDS011;7960;50.908;4.204;2023-04-06T07:20:13;26.27;;;17.63;;
15716;SDS011;7960;50.908;4.204;2023-04-06T07:22:42;28.87;;;17.97;;
15716;SDS011;7960;50.908;4.204;2023-04-06T07:25:11;26.63;;;16.83;;
15716;SDS011;7960;50.908;4.204;2023-04-06T07:27:38;28.27;;;16.37;;
15716;SDS011;7960;50.908;4.204;2023-04-06T07:30:05;30.47;;;16.57;;
15716;SDS011;7960;50.908;4.204;2023-04-06T07:32:33;25.50;;;15.43;;
15716;SDS011;7960;50.908;4.204;2023-04-06T07:35:00;28.60;;;15.70;;
15716;SDS011;7960;50.908;4.204;2023-04-06T07:37:27;30.73;;;15.03;;
15716;SDS011;7960;50.908;4.204;2023-04-06T07:39:54;19.43;;;14.07;;
15716;SDS011;7960;50.908;4.204;2023-04-06T07:42:23;24.23;;;14.40;;
15716;SDS011;7960;50.908;4.204;2023-04-06T07:44:50;22.17;;;13.70;;
15716;SDS011;7960;50.908;4.204;2023-04-06T07:47:17;22.03;;;12.90;;
15716;SDS011;7960;50.908;4.204;2023-04-06T07:49:44;20.10;;;12.10;;
15716;SDS011;7960;50.908;4.204;2023-04-06T07:52:11;25.03;;;13.20;;
15716;SDS011;7960;50.908;4.204;2023-04-06T07:54:38;18.70;;;12.27;;
15716;SDS011;7960;50.908;4.204;2023-04-06T07:57:06;18.10;;;11.33;;
15716;SDS011;7960;50.908;4.204;2023-04-06T07:59:34;16.83;;;10.77;;
15716;SDS011;7960;50.908;4.204;2023-04-06T08:02:01;15.83;;;10.00;;
15716;SDS011;7960;50.908;4.204;2023-04-06T08:04:28;18.60;;;10.43;;
15716;SDS011;7960;50.908;4.204;2023-04-06T08:06:55;11.30;;;8.23;;
15716;SDS011;7960;50.908;4.204;2023-04-06T08:09:22;13.03;;;8.67;;
15716;SDS011;7960;50.908;4.204;2023-04-06T08:14:36;13.70;;;8.13;;
15716;SDS011;7960;50.908;4.204;2023-04-06T08:17:03;10.47;;;7.27;;
15716;SDS011;7960;50.908;4.204;2023-04-06T08:19:29;12.23;;;7.90;;
15716;SDS011;7960;50.908;4.204;2023-04-06T08:21:57;13.17;;;8.30;;
15716;SDS011;7960;50.908;4.204;2023-04-06T08:24:24;15.37;;;8.00;;
15716;SDS011;7960;50.908;4.204;2023-04-06T08:26:50;16.17;;;8.57;;
15716;SDS011;7960;50.908;4.204;2023-04-06T08:29:17;14.50;;;8.33;;
15716;SDS011;7960;50.908;4.204;2023-04-06T08:31:46;16.97;;;9.07;;
15716;SDS011;7960;50.908;4.204;2023-04-06T08:34:13;13.50;;;8.43;;
15716;SDS011;7960;50.908;4.204;2023-04-06T08:36:40;12.13;;;8.63;;
15716;SDS011;7960;50.908;4.204;2023-04-06T08:39:07;12.57;;;8.63;;
15716;SDS011;7960;50.908;4.204;2023-04-06T08:41:34;12.60;;;8.57;;
15716;SDS011;7960;50.908;4.204;2023-04-06T08:44:02;14.40;;;8.30;;
15716;SDS011;7960;50.908;4.204;2023-04-06T08:46:30;12.17;;;7.90;;
15716;SDS011;7960;50.908;4.204;2023-04-06T08:48:59;14.90;;;9.40;;
15716;SDS011;7960;50.908;4.204;2023-04-06T08:51:28;13.43;;;8.80;;
15716;SDS011;7960;50.908;4.204;2023-04-06T08:53:56;13.63;;;8.97;;
15716;SDS011;7960;50.908;4.204;2023-04-06T08:56:24;11.87;;;8.43;;
15716;SDS011;7960;50.908;4.204;2023-04-06T08:58:53;14.57;;;8.30;;
15716;SDS011;7960;50.908;4.204;2023-04-06T09:01:21;13.23;;;9.00;;
15716;SDS011;7960;50.908;4.204;2023-04-06T09:03:51;13.90;;;8.20;;
15716;SDS011;7960;50.908;4.204;2023-04-06T09:06:23;14.17;;;8.53;;
15716;SDS011;7960;50.908;4.204;2023-04-06T09:08:52;12.93;;;8.10;;
15716;SDS011;7960;50.908;4.204;2023-04-06T09:11:19;12.40;;;7.33;;
15716;SDS011;7960;50.908;4.204;2023-04-06T09:13:47;14.97;;;8.83;;
15716;SDS011;7960;50.908;4.204;2023-04-06T09:16:16;16.67;;;8.80;;
15716;SDS011;7960;50.908;4.204;2023-04-06T09:18:44;15.63;;;8.70;;
15716;SDS011;7960;50.908;4.204;2023-04-06T09:21:11;11.97;;;8.37;;
15716;SDS011;7960;50.908;4.204;2023-04-06T09:23:39;11.57;;;7.97;;
15716;SDS011;7960;50.908;4.204;2023-04-06T09:26:07;11.40;;;8.20;;
15716;SDS011;7960;50.908;4.204;2023-04-06T09:28:42;12.47;;;9.00;;
15716;SDS011;7960;50.908;4.204;2023-04-06T09:31:10;15.50;;;8.57;;
15716;SDS011;7960;50.908;4.204;2023-04-06T09:33:38;13.50;;;9.17;;
15716;SDS011;7960;50.908;4.204;2023-04-06T09:36:06;11.27;;;8.47;;
15716;SDS011;7960;50.908;4.204;2023-04-06T09:38:35;13.60;;;8.40;;
15716;SDS011;7960;50.908;4.204;2023-04-06T09:41:05;13.30;;;9.20;;
15716;SDS011;7960;50.908;4.204;2023-04-06T09:43:32;12.87;;;8.10;;
15716;SDS011;7960;50.908;4.204;2023-04-06T09:46:00;12.47;;;8.77;;
15716;SDS011;7960;50.908;4.204;2023-04-06T09:48:29;14.97;;;8.70;;
15716;SDS011;7960;50.908;4.204;2023-04-06T09:51:02;15.07;;;8.73;;
15716;SDS011;7960;50.908;4.204;2023-04-06T09:53:31;14.03;;;9.07;;
15716;SDS011;7960;50.908;4.204;2023-04-06T09:56:05;12.47;;;9.43;;
15716;SDS011;7960;50.908;4.204;2023-04-06T09:58:37;11.07;;;8.30;;
15716;SDS011;7960;50.908;4.204;2023-04-06T10:01:09;13.77;;;8.87;;
15716;SDS011;7960;50.908;4.204;2023-04-06T10:03:40;13.27;;;8.60;;
15716;SDS011;7960;50.908;4.204;2023-04-06T10:06:12;11.33;;;8.43;;
15716;SDS011;7960;50.908;4.204;2023-04-06T10:08:41;14.43;;;8.80;;
15716;SDS011;7960;50.908;4.204;2023-04-06T10:11:13;12.77;;;8.33;;
15716;SDS011;7960;50.908;4.204;2023-04-06T10:13:41;13.47;;;8.77;;
15716;SDS011;7960;50.908;4.204;2023-04-06T10:16:09;14.33;;;8.90;;
15716;SDS011;7960;50.908;4.204;2023-04-06T10:18:36;13.80;;;9.17;;
15716;SDS011;7960;50.908;4.204;2023-04-06T10:21:06;14.73;;;9.87;;
15716;SDS011;7960;50.908;4.204;2023-04-06T10:23:39;13.60;;;9.50;;
15716;SDS011;7960;50.908;4.204;2023-04-06T10:26:13;15.87;;;10.00;;
15716;SDS011;7960;50.908;4.204;2023-04-06T10:28:42;15.20;;;9.27;;
15716;SDS011;7960;50.908;4.204;2023-04-06T10:31:11;15.27;;;10.50;;
15716;SDS011;7960;50.908;4.204;2023-04-06T10:33:38;15.10;;;10.27;;
15716;SDS011;7960;50.908;4.204;2023-04-06T10:36:09;15.00;;;10.10;;
15716;SDS011;7960;50.908;4.204;2023-04-06T10:38:37;16.33;;;10.47;;
15716;SDS011;7960;50.908;4.204;2023-04-06T10:41:05;16.07;;;9.80;;
15716;SDS011;7960;50.908;4.204;2023-04-06T10:43:34;15.53;;;10.60;;
15716;SDS011;7960;50.908;4.204;2023-04-06T10:46:02;14.87;;;10.33;;
15716;SDS011;7960;50.908;4.204;2023-04-06T10:48:36;17.00;;;11.13;;
15716;SDS011;7960;50.908;4.204;2023-04-06T10:51:09;16.23;;;11.07;;
15716;SDS011;7960;50.908;4.204;2023-04-06T10:53:37;18.37;;;12.60;;
15716;SDS011;7960;50.908;4.204;2023-04-06T10:56:09;25.00;;;15.93;;
15716;SDS011;7960;50.908;4.204;2023-04-06T10:58:38;20.07;;;12.70;;
15716;SDS011;7960;50.908;4.204;2023-04-06T11:01:11;18.73;;;11.70;;
15716;SDS011;7960;50.908;4.204;2023-04-06T11:03:44;19.47;;;12.60;;
15716;SDS011;7960;50.908;4.204;2023-04-06T11:06:17;17.30;;;11.63;;
15716;SDS011;7960;50.908;4.204;2023-04-06T11:08:44;17.30;;;12.17;;
15716;SDS011;7960;50.908;4.204;2023-04-06T11:11:12;17.87;;;12.13;;
15716;SDS011;7960;50.908;4.204;2023-04-06T11:13:45;18.27;;;13.03;;
15716;SDS011;7960;50.908;4.204;2023-04-06T11:16:13;21.33;;;13.60;;
15716;SDS011;7960;50.908;4.204;2023-04-06T11:18:47;20.67;;;13.63;;
15716;SDS011;7960;50.908;4.204;2023-04-06T11:21:20;23.33;;;14.10;;
15716;SDS011;7960;50.908;4.204;2023-04-06T11:24:03;23.03;;;13.67;;
15716;SDS011;7960;50.908;4.204;2023-04-06T11:26:38;23.00;;;14.60;;
15716;SDS011;7960;50.908;4.204;2023-04-06T11:29:07;21.10;;;13.83;;
15716;SDS011;7960;50.908;4.204;2023-04-06T11:31:38;21.67;;;14.73;;
15716;SDS011;7960;50.908;4.204;2023-04-06T11:34:09;23.13;;;15.03;;
15716;SDS011;7960;50.908;4.204;2023-04-06T11:36:39;19.63;;;14.70;;
15716;SDS011;7960;50.908;4.204;2023-04-06T11:39:08;18.87;;;14.00;;
15716;SDS011;7960;50.908;4.204;2023-04-06T11:41:36;21.37;;;13.50;;
15716;SDS011;7960;50.908;4.204;2023-04-06T11:44:03;19.23;;;14.17;;
15716;SDS011;7960;50.908;4.204;2023-04-06T11:46:32;20.27;;;13.93;;
15716;SDS011;7960;50.908;4.204;2023-04-06T11:48:59;20.63;;;14.40;;
15716;SDS011;7960;50.908;4.204;2023-04-06T11:51:27;23.73;;;15.17;;
15716;SDS011;7960;50.908;4.204;2023-04-06T11:53:54;21.00;;;14.97;;
15716;SDS011;7960;50.908;4.204;2023-04-06T11:56:22;19.83;;;14.90;;
15716;SDS011;7960;50.908;4.204;2023-04-06T11:58:57;25.57;;;15.83;;
15716;SDS011;7960;50.908;4.204;2023-04-06T12:01:25;21.90;;;15.37;;
15716;SDS011;7960;50.908;4.204;2023-04-06T12:03:53;23.63;;;16.07;;
15716;SDS011;7960;50.908;4.204;2023-04-06T12:06:20;21.70;;;15.03;;
15716;SDS011;7960;50.908;4.204;2023-04-06T12:08:47;18.97;;;13.87;;
15716;SDS011;7960;50.908;4.204;2023-04-06T12:11:14;21.77;;;14.87;;
15716;SDS011;7960;50.908;4.204;2023-04-06T12:13:41;20.60;;;14.37;;
15716;SDS011;7960;50.908;4.204;2023-04-06T12:16:08;22.10;;;14.77;;
15716;SDS011;7960;50.908;4.204;2023-04-06T12:18:35;21.27;;;15.40;;
15716;SDS011;7960;50.908;4.204;2023-04-06T12:21:04;20.67;;;14.70;;
15716;SDS011;7960;50.908;4.204;2023-04-06T12:23:31;20.23;;;14.50;;
15716;SDS011;7960;50.908;4.204;2023-04-06T12:25:58;20.77;;;14.03;;
15716;SDS011;7960;50.908;4.204;2023-04-06T12:28:26;19.63;;;14.17;;
15716;SDS011;7960;50.908;4.204;2023-04-06T12:30:53;17.37;;;12.60;;
15716;SDS011;7960;50.908;4.204;2023-04-06T12:33:20;19.33;;;14.03;;
15716;SDS011;7960;50.908;4.204;2023-04-06T12:35:47;21.07;;;14.17;;
15716;SDS011;7960;50.908;4.204;2023-04-06T12:38:16;20.77;;;14.83;;
15716;SDS011;7960;50.908;4.204;2023-04-06T12:40:43;18.43;;;13.50;;
15716;SDS011;7960;50.908;4.204;2023-04-06T12:43:10;17.73;;;13.93;;
15716;SDS011;7960;50.908;4.204;2023-04-06T12:45:38;20.50;;;14.13;;
15716;SDS011;7960;50.908;4.204;2023-04-06T12:48:05;18.47;;;14.63;;
15716;SDS011;7960;50.908;4.204;2023-04-06T12:50:32;19.93;;;15.10;;
15716;SDS011;7960;50.908;4.204;2023-04-06T12:52:59;20.87;;;15.57;;
15716;SDS011;7960;50.908;4.204;2023-04-06T12:55:30;22.23;;;16.17;;
15716;SDS011;7960;50.908;4.204;2023-04-06T12:57:59;22.43;;;15.77;;
15716;SDS011;7960;50.908;4.204;2023-04-06T13:00:26;21.67;;;16.33;;
15716;SDS011;7960;50.908;4.204;2023-04-06T13:02:53;22.80;;;17.57;;
15716;SDS011;7960;50.908;4.204;2023-04-06T13:05:20;22.13;;;16.67;;
15716;SDS011;7960;50.908;4.204;2023-04-06T13:07:47;22.03;;;16.03;;
15716;SDS011;7960;50.908;4.204;2023-04-06T13:10:14;21.20;;;15.53;;
15716;SDS011;7960;50.908;4.204;2023-04-06T13:12:43;19.23;;;14.57;;
15716;SDS011;7960;50.908;4.204;2023-04-06T13:15:10;24.03;;;16.37;;
15716;SDS011;7960;50.908;4.204;2023-04-06T13:17:37;22.67;;;16.20;;
15716;SDS011;7960;50.908;4.204;2023-04-06T13:20:04;27.40;;;17.90;;
15716;SDS011;7960;50.908;4.204;2023-04-06T13:22:32;23.43;;;17.70;;
15716;SDS011;7960;50.908;4.204;2023-04-06T13:24:59;22.93;;;16.03;;
15716;SDS011;7960;50.908;4.204;2023-04-06T13:27:26;23.73;;;17.53;;
15716;SDS011;7960;50.908;4.204;2023-04-06T13:29:55;25.17;;;17.40;;
15716;SDS011;7960;50.908;4.204;2023-04-06T13:32:22;22.80;;;16.73;;
15716;SDS011;7960;50.908;4.204;2023-04-06T13:34:49;25.07;;;16.47;;
15716;SDS011;7960;50.908;4.204;2023-04-06T13:37:18;26.60;;;17.43;;
15716;SDS011;7960;50.908;4.204;2023-04-06T13:39:45;23.83;;;17.00;;
15716;SDS011;7960;50.908;4.204;2023-04-06T13:42:12;23.60;;;17.07;;
15716;SDS011;7960;50.908;4.204;2023-04-06T13:44:39;22.27;;;16.37;;
15716;SDS011;7960;50.908;4.204;2023-04-06T13:47:07;25.87;;;18.13;;
15716;SDS011;7960;50.908;4.204;2023-04-06T13:49:34;23.67;;;17.10;;
15716;SDS011;7960;50.908;4.204;2023-04-06T13:52:01;24.17;;;17.27;;
15716;SDS011;7960;50.908;4.204;2023-04-06T13:54:28;24.60;;;17.27;;
15716;SDS011;7960;50.908;4.204;2023-04-06T13:56:55;25.83;;;18.20;;
15716;SDS011;7960;50.908;4.204;2023-04-06T13:59:22;25.93;;;19.00;;
15716;SDS011;7960;50.908;4.204;2023-04-06T14:01:49;26.03;;;18.50;;
15716;SDS011;7960;50.908;4.204;2023-04-06T14:04:17;25.57;;;18.90;;
15716;SDS011;7960;50.908;4.204;2023-04-06T14:06:44;25.27;;;17.10;;
15716;SDS011;7960;50.908;4.204;2023-04-06T14:09:11;25.73;;;18.57;;
15716;SDS011;7960;50.908;4.204;2023-04-06T14:11:39;24.03;;;18.23;;
15716;SDS011;7960;50.908;4.204;2023-04-06T14:14:05;28.57;;;19.03;;
15716;SDS011;7960;50.908;4.204;2023-04-06T14:16:32;24.60;;;17.83;;
15716;SDS011;7960;50.908;4.204;2023-04-06T14:18:59;25.40;;;17.53;;
15716;SDS011;7960;50.908;4.204;2023-04-06T14:21:28;27.57;;;18.77;;
15716;SDS011;7960;50.908;4.204;2023-04-06T14:23:54;24.77;;;18.47;;
15716;SDS011;7960;50.908;4.204;2023-04-06T14:26:21;26.37;;;17.93;;
15716;SDS011;7960;50.908;4.204;2023-04-06T14:28:49;24.70;;;18.40;;
15716;SDS011;7960;50.908;4.204;2023-04-06T14:31:16;24.27;;;17.83;;
15716;SDS011;7960;50.908;4.204;2023-04-06T14:33:43;26.80;;;18.50;;
15716;SDS011;7960;50.908;4.204;2023-04-06T14:36:11;26.23;;;19.27;;
15716;SDS011;7960;50.908;4.204;2023-04-06T14:38:39;25.03;;;18.00;;
15716;SDS011;7960;50.908;4.204;2023-04-06T14:41:06;26.87;;;17.80;;